createdAt,value
2023-02-03T00:00:43.617Z,7.29
2023-02-03T00:03:11.509Z,7.49
2023-02-03T00:05:40.938Z,7.34
2023-02-03T00:08:09.719Z,7.44
2023-02-03T00:10:40.479Z,7.50
2023-02-03T00:13:09.723Z,7.48
2023-02-03T00:15:37.586Z,7.58
2023-02-03T00:18:07.914Z,7.56
2023-02-03T00:20:35.893Z,7.51
2023-02-03T00:23:06.893Z,7.50
2023-02-03T00:25:35.386Z,7.37
2023-02-03T00:28:04.299Z,7.67
2023-02-03T00:30:32.947Z,7.47
2023-02-03T00:33:01.629Z,7.59
2023-02-03T00:35:31.223Z,7.26
2023-02-03T00:37:59.637Z,7.51
2023-02-03T00:40:29.833Z,7.57
2023-02-03T00:42:57.862Z,7.53
2023-02-03T00:45:25.691Z,7.65
2023-02-03T00:47:53.907Z,7.68
2023-02-03T00:50:21.708Z,7.67
2023-02-03T00:52:50.897Z,7.73
2023-02-03T00:55:18.819Z,7.68
2023-02-03T00:57:46.640Z,7.66
2023-02-03T01:00:15.309Z,7.73
2023-02-03T01:02:43.155Z,7.72
2023-02-03T01:05:11.194Z,7.58
2023-02-03T01:07:39.226Z,7.59
2023-02-03T01:10:09.388Z,7.57
2023-02-03T01:12:37.335Z,7.75
2023-02-03T01:15:05.944Z,7.61
2023-02-03T01:17:33.900Z,7.69
2023-02-03T01:20:01.894Z,7.39
2023-02-03T01:22:30.916Z,7.71
2023-02-03T01:24:58.895Z,7.74
2023-02-03T01:27:28.127Z,7.68
2023-02-03T01:29:57.424Z,7.69
2023-02-03T01:32:25.489Z,7.77
2023-02-03T01:34:53.538Z,7.75
2023-02-03T01:37:21.635Z,7.73
2023-02-03T01:39:49.527Z,7.77
2023-02-03T01:42:17.738Z,7.77
2023-02-03T01:44:49.348Z,7.83
2023-02-03T01:47:28.920Z,7.81
2023-02-03T01:50:03.100Z,7.85
2023-02-03T01:52:32.415Z,7.83
2023-02-03T01:55:03.907Z,7.78
2023-02-03T01:57:36.230Z,7.85
2023-02-03T02:00:07.904Z,7.84
2023-02-03T02:02:43.257Z,7.80
2023-02-03T02:05:18.508Z,7.73
2023-02-03T02:07:48.881Z,7.62
2023-02-03T02:10:17.154Z,7.80
2023-02-03T02:12:45.324Z,7.82
2023-02-03T02:15:16.221Z,7.87
2023-02-03T02:18:08.445Z,7.76
2023-02-03T02:21:13.463Z,7.87
2023-02-03T02:24:09.547Z,7.85
2023-02-03T02:26:52.835Z,7.64
2023-02-03T02:29:53.016Z,7.79
2023-02-03T02:32:32.273Z,7.80
2023-02-03T02:35:06.020Z,7.78
2023-02-03T02:37:49.247Z,7.81
2023-02-03T02:40:26.572Z,7.83
2023-02-03T02:43:05.802Z,7.04
2023-02-03T02:45:42.262Z,7.84
2023-02-03T02:48:18.146Z,7.64
2023-02-03T02:50:49.484Z,7.74
2023-02-03T02:53:21.998Z,7.82
2023-02-03T02:55:53.111Z,7.89
2023-02-03T02:58:22.802Z,7.65
2023-02-03T03:00:51.632Z,7.88
2023-02-03T03:03:22.783Z,7.82
2023-02-03T03:05:55.344Z,7.84
2023-02-03T03:08:35.941Z,7.81
2023-02-03T03:11:04.521Z,7.88
2023-02-03T03:13:37.707Z,7.92
2023-02-03T03:16:09.786Z,7.87
2023-02-03T03:18:44.815Z,7.88
2023-02-03T03:21:17.265Z,7.89
2023-02-03T03:23:49.721Z,7.91
2023-02-03T03:26:28.787Z,7.85
2023-02-03T03:29:02.744Z,7.90
2023-02-03T03:31:30.909Z,7.85
2023-02-03T03:34:00.475Z,7.58
2023-02-03T03:36:32.610Z,7.96
2023-02-03T03:39:06.129Z,7.93
2023-02-03T03:41:42.769Z,7.88
2023-02-03T03:44:16.234Z,7.91
2023-02-03T03:46:50.042Z,7.85
2023-02-03T03:49:21.680Z,7.61
2023-02-03T03:51:53.212Z,7.96
2023-02-03T03:54:24.431Z,7.65
2023-02-03T03:56:58.215Z,7.87
2023-02-03T03:59:30.466Z,7.88
2023-02-03T04:01:59.502Z,7.88
2023-02-03T04:04:29.650Z,7.86
2023-02-03T04:06:57.527Z,7.93
2023-02-03T04:09:25.833Z,7.81
2023-02-03T04:12:02.377Z,7.82
2023-02-03T04:14:31.219Z,7.84
2023-02-03T04:16:59.731Z,7.86
2023-02-03T04:19:29.397Z,7.83
2023-02-03T04:21:57.821Z,7.88
2023-02-03T04:24:25.630Z,7.98
2023-02-03T04:26:53.470Z,7.93
2023-02-03T04:29:21.347Z,7.51
2023-02-03T04:31:49.361Z,7.91
2023-02-03T04:34:17.409Z,7.76
2023-02-03T04:36:46.651Z,7.98
2023-02-03T04:39:14.567Z,7.91
2023-02-03T04:41:42.670Z,7.90
2023-02-03T04:44:10.727Z,7.70
2023-02-03T04:46:38.526Z,7.98
2023-02-03T04:49:06.906Z,7.95
2023-02-03T04:51:34.749Z,8.03
2023-02-03T04:54:04.033Z,7.98
2023-02-03T04:56:31.941Z,8.02
2023-02-03T04:58:59.836Z,8.04
2023-02-03T05:01:27.772Z,8.00
2023-02-03T05:03:55.729Z,7.92
2023-02-03T05:06:25.729Z,8.03
2023-02-03T05:08:53.667Z,7.94
2023-02-03T05:11:23.825Z,7.70
2023-02-03T05:13:52.090Z,8.01
2023-02-03T05:16:20.056Z,7.98
2023-02-03T05:18:47.969Z,7.95
2023-02-03T05:21:15.946Z,7.39
2023-02-03T05:23:43.831Z,8.03
2023-02-03T05:26:11.679Z,7.84
2023-02-03T05:28:41.128Z,8.04
2023-02-03T05:31:09.082Z,8.07
2023-02-03T05:33:37.053Z,7.89
2023-02-03T05:36:05.531Z,8.04
2023-02-03T05:38:33.368Z,7.99
2023-02-03T05:41:18.586Z,7.97
2023-02-03T05:43:48.089Z,8.04
2023-02-03T05:46:15.991Z,8.10
2023-02-03T05:48:43.870Z,8.06
2023-02-03T05:51:11.834Z,8.02
2023-02-03T05:53:40.011Z,8.05
2023-02-03T05:56:08.273Z,7.84
2023-02-03T05:58:36.119Z,7.99
2023-02-03T06:01:05.657Z,7.78
2023-02-03T06:03:33.534Z,7.92
2023-02-03T06:06:01.490Z,8.00
2023-02-03T06:08:29.331Z,7.76
2023-02-03T06:10:59.946Z,8.07
2023-02-03T06:13:28.659Z,8.08
2023-02-03T06:15:57.325Z,8.07
2023-02-03T06:18:26.654Z,8.08
2023-02-03T06:20:54.825Z,7.93
2023-02-03T06:23:22.726Z,8.07
2023-02-03T06:25:51.985Z,8.03
2023-02-03T06:28:20.012Z,7.91
2023-02-03T06:30:52.335Z,8.09
2023-02-03T06:33:20.555Z,7.78
2023-02-03T06:35:50.174Z,7.92
2023-02-03T06:38:18.044Z,7.72
2023-02-03T06:40:48.049Z,7.67
2023-02-03T06:43:16.544Z,7.75
2023-02-03T06:45:47.438Z,7.24
2023-02-03T06:48:15.953Z,7.73
2023-02-03T06:50:43.868Z,7.65
2023-02-03T06:53:13.051Z,7.56
2023-02-03T06:55:40.997Z,7.72
2023-02-03T06:58:08.924Z,7.76
2023-02-03T07:00:36.925Z,7.72
2023-02-03T07:03:05.154Z,7.70
2023-02-03T07:05:33.205Z,7.62
2023-02-03T07:08:01.092Z,7.61
2023-02-03T07:10:30.407Z,7.63
2023-02-03T07:13:03.817Z,7.59
2023-02-03T07:15:31.729Z,7.38
2023-02-03T07:17:59.668Z,7.68
2023-02-03T07:20:29.099Z,7.62
2023-02-03T07:22:58.826Z,7.31
2023-02-03T07:25:27.488Z,7.58
2023-02-03T07:27:56.840Z,7.57
2023-02-03T07:30:25.179Z,7.43
2023-02-03T07:32:54.135Z,7.53
2023-02-03T07:35:22.503Z,7.49
2023-02-03T07:37:50.414Z,7.58
2023-02-03T07:40:18.829Z,7.57
2023-02-03T07:42:48.180Z,7.57
2023-02-03T07:45:19.407Z,7.49
2023-02-03T07:47:47.273Z,7.53
2023-02-03T07:50:15.162Z,7.37
2023-02-03T07:52:43.096Z,7.58
2023-02-03T07:55:11.207Z,7.70
2023-02-03T07:57:43.423Z,7.65
2023-02-03T08:00:12.868Z,7.62
2023-02-03T08:02:42.332Z,7.68
2023-02-03T08:05:11.166Z,7.34
2023-02-03T08:07:39.448Z,7.59
2023-02-03T08:10:08.843Z,7.66
2023-02-03T08:12:37.052Z,7.73
2023-02-03T08:15:06.069Z,7.69
2023-02-03T08:17:34.559Z,7.66
2023-02-03T08:20:04.620Z,7.67
2023-02-03T08:22:32.519Z,7.68
2023-02-03T08:25:00.386Z,7.71
2023-02-03T08:27:28.294Z,7.68
2023-02-03T08:29:56.133Z,7.49
2023-02-03T08:32:24.948Z,7.50
2023-02-03T08:34:53.552Z,7.63
2023-02-03T08:37:25.465Z,7.69
2023-02-03T08:39:54.016Z,7.74
2023-02-03T08:42:22.196Z,7.46
2023-02-03T08:44:50.223Z,7.73
2023-02-03T08:47:18.248Z,7.79
2023-02-03T08:49:46.209Z,7.80
2023-02-03T08:52:14.962Z,7.76
2023-02-03T08:54:45.500Z,7.83
2023-02-03T08:57:14.489Z,7.88
2023-02-03T08:59:44.078Z,7.28
2023-02-03T09:02:15.882Z,7.88
2023-02-03T09:04:44.039Z,7.82
2023-02-03T09:07:11.953Z,7.07
2023-02-03T09:09:40.515Z,7.61
2023-02-03T09:12:12.295Z,7.61
2023-02-03T09:14:40.521Z,7.95
2023-02-03T09:17:09.496Z,7.92
2023-02-03T09:19:37.631Z,8.00
2023-02-03T09:22:05.941Z,7.89
2023-02-03T09:24:34.409Z,6.96
2023-02-03T09:27:02.562Z,8.07
2023-02-03T09:29:32.131Z,7.49
2023-02-03T09:32:00.161Z,8.06
2023-02-03T09:34:28.169Z,7.91
2023-02-03T09:36:56.033Z,8.04
2023-02-03T09:39:23.901Z,8.03
2023-02-03T09:42:33.836Z,8.06
2023-02-03T09:45:15.878Z,8.11
2023-02-03T09:47:45.580Z,7.88
2023-02-03T09:50:19.955Z,8.08
2023-02-03T09:52:49.001Z,8.07
2023-02-03T09:55:27.674Z,8.09
2023-02-03T09:58:02.254Z,8.06
2023-02-03T10:00:34.327Z,8.12
2023-02-03T10:03:08.744Z,7.39
2023-02-03T10:05:50.841Z,7.83
2023-02-03T10:08:31.184Z,7.83
2023-02-03T10:11:10.994Z,8.03
2023-02-03T10:13:52.192Z,8.08
2023-02-03T10:16:33.114Z,8.08
2023-02-03T10:19:04.421Z,7.96
2023-02-03T10:21:36.848Z,8.03
2023-02-03T10:24:11.905Z,8.01
2023-02-03T10:26:41.679Z,8.00
2023-02-03T10:29:19.790Z,8.07
2023-02-03T10:31:49.992Z,7.95
2023-02-03T10:34:19.285Z,8.07
2023-02-03T10:36:56.505Z,8.16
2023-02-03T10:39:34.270Z,7.96
2023-02-03T10:42:03.402Z,8.02
2023-02-03T10:44:38.432Z,8.15
2023-02-03T10:47:26.127Z,8.18
2023-02-03T10:49:56.110Z,8.22
2023-02-03T10:52:30.223Z,8.06
2023-02-03T10:54:59.485Z,8.12
2023-02-03T10:57:30.812Z,8.20
2023-02-03T11:00:09.771Z,8.17
2023-02-03T11:02:39.276Z,8.17
2023-02-03T11:05:20.968Z,8.22
2023-02-03T11:07:49.515Z,8.15
2023-02-03T11:10:36.823Z,8.23
2023-02-03T11:13:19.388Z,8.15
2023-02-03T11:15:54.994Z,8.17
2023-02-03T11:18:45.379Z,8.15
2023-02-03T11:21:16.261Z,8.20
2023-02-03T11:23:49.247Z,7.96
2023-02-03T11:26:22.066Z,7.79
2023-02-03T11:28:52.718Z,8.10
2023-02-03T11:31:26.598Z,8.16
2023-02-03T11:34:02.702Z,8.20
2023-02-03T11:36:33.346Z,7.94
2023-02-03T11:39:21.899Z,8.15
2023-02-03T11:41:50.419Z,8.18
2023-02-03T11:44:21.673Z,8.06
2023-02-03T11:46:53.489Z,8.19
2023-02-03T11:49:45.183Z,8.14
2023-02-03T11:52:33.931Z,8.09
2023-02-03T11:55:10.692Z,8.18
2023-02-03T11:57:47.741Z,8.31
2023-02-03T12:00:31.385Z,8.12
2023-02-03T12:03:36.005Z,8.25
2023-02-03T12:06:22.336Z,8.30
2023-02-03T12:09:09.729Z,8.22
2023-02-03T12:11:55.005Z,8.38
2023-02-03T12:14:40.426Z,8.34
2023-02-03T12:17:28.158Z,8.37
2023-02-03T12:20:12.564Z,8.33
2023-02-03T12:22:52.838Z,8.41
2023-02-03T12:25:28.027Z,8.52
2023-02-03T12:28:32.471Z,8.60
2023-02-03T12:31:09.071Z,8.56
2023-02-03T12:33:44.379Z,8.04
2023-02-03T12:36:17.277Z,8.66
2023-02-03T12:38:52.564Z,8.70
2023-02-03T12:41:25.775Z,7.91
2023-02-03T12:43:59.467Z,8.64
2023-02-03T12:46:31.622Z,8.30
2023-02-03T12:49:05.327Z,8.59
2023-02-03T12:51:39.890Z,8.74
2023-02-03T12:54:20.521Z,8.84
2023-02-03T12:56:52.448Z,8.93
2023-02-03T12:59:25.074Z,8.75
2023-02-03T13:01:58.512Z,7.86
2023-02-03T13:04:34.117Z,8.81
2023-02-03T13:07:09.611Z,8.87
2023-02-03T13:09:45.782Z,9.02
2023-02-03T13:12:25.034Z,8.77
2023-02-03T13:14:57.591Z,8.69
2023-02-03T13:17:29.785Z,8.80
2023-02-03T13:20:03.654Z,8.96
2023-02-03T13:22:31.977Z,8.91
2023-02-03T13:25:10.568Z,8.81
2023-02-03T13:27:47.217Z,8.83
2023-02-03T13:30:31.027Z,8.78
2023-02-03T13:33:27.217Z,8.85
2023-02-03T13:36:09.521Z,8.84
2023-02-03T13:39:03.216Z,8.80
2023-02-03T13:41:41.190Z,8.84
2023-02-03T13:44:13.837Z,8.91
2023-02-03T13:46:42.664Z,8.84
2023-02-03T13:49:18.401Z,8.71
2023-02-03T13:51:47.652Z,8.80
2023-02-03T13:54:22.977Z,8.83
2023-02-03T13:56:59.861Z,8.88
2023-02-03T13:59:31.959Z,8.73
2023-02-03T14:02:34.843Z,8.73
2023-02-03T14:05:04.207Z,8.61
2023-02-03T14:07:34.536Z,8.62
2023-02-03T14:10:15.148Z,8.69
2023-02-03T14:13:00.663Z,8.63
2023-02-03T14:15:33.950Z,8.73
2023-02-03T14:18:26.939Z,7.85
2023-02-03T14:21:11.377Z,8.71
2023-02-03T14:23:45.293Z,8.80
2023-02-03T14:26:21.031Z,8.73
2023-02-03T14:28:53.778Z,8.63
2023-02-03T14:31:23.964Z,8.74
2023-02-03T14:33:57.387Z,8.73
2023-02-03T14:36:45.362Z,8.76
2023-02-03T14:39:55.421Z,8.70
2023-02-03T14:42:41.140Z,8.46
2023-02-03T14:45:27.616Z,8.65
2023-02-03T14:48:10.041Z,8.62
2023-02-03T14:50:58.211Z,8.62
2023-02-03T14:53:42.446Z,8.45
2023-02-03T14:56:20.411Z,8.62
2023-02-03T14:58:53.758Z,8.54
2023-02-03T15:01:29.131Z,8.28
2023-02-03T15:04:23.174Z,8.55
2023-02-03T15:06:53.352Z,8.51
2023-02-03T15:09:34.039Z,8.21
2023-02-03T15:12:02.376Z,8.53
2023-02-03T15:14:32.205Z,8.04
2023-02-03T15:17:03.358Z,8.38
2023-02-03T15:19:35.857Z,8.32
2023-02-03T15:22:04.025Z,8.34
2023-02-03T15:24:38.152Z,8.35
2023-02-03T15:27:06.116Z,7.38
2023-02-03T15:29:36.455Z,8.20
2023-02-03T15:32:11.481Z,7.77
2023-02-03T15:34:43.823Z,8.25
2023-02-03T15:37:18.348Z,8.22
2023-02-03T15:39:56.875Z,8.07
2023-02-03T15:42:31.807Z,8.05
2023-02-03T15:45:07.094Z,7.50
2023-02-03T15:47:42.664Z,8.09
2023-02-03T15:50:30.663Z,7.91
2023-02-03T15:53:05.351Z,7.95
2023-02-03T15:55:38.472Z,7.57
2023-02-03T15:58:07.418Z,7.99
2023-02-03T16:00:39.244Z,7.75
2023-02-03T16:03:23.062Z,7.90
2023-02-03T16:05:51.431Z,7.09
2023-02-03T16:08:46.177Z,7.96
2023-02-03T16:11:32.153Z,7.80
2023-02-03T16:14:01.811Z,7.89
2023-02-03T16:16:33.316Z,7.82
2023-02-03T16:19:05.018Z,7.72
2023-02-03T16:21:36.012Z,7.81
2023-02-03T16:24:05.536Z,7.73
2023-02-03T16:26:38.392Z,7.65
2023-02-03T16:29:33.660Z,7.33
2023-02-03T16:32:19.428Z,7.69
2023-02-03T16:35:06.424Z,7.82
2023-02-03T16:37:53.911Z,7.73
2023-02-03T16:40:41.520Z,7.72
2023-02-03T16:43:31.221Z,7.46
2023-02-03T16:46:18.220Z,7.65
2023-02-03T16:49:03.605Z,7.58
2023-02-03T16:51:40.201Z,7.52
2023-02-03T16:54:10.996Z,7.53
2023-02-03T16:56:39.017Z,7.49
2023-02-03T16:59:06.928Z,7.51
2023-02-03T17:01:35.879Z,7.31
2023-02-03T17:04:03.981Z,7.38
2023-02-03T17:06:32.922Z,7.53
2023-02-03T17:09:02.198Z,7.49
2023-02-03T17:11:30.381Z,7.48
2023-02-03T17:13:58.619Z,7.41
2023-02-03T17:16:27.944Z,7.36
2023-02-03T17:18:56.203Z,7.36
2023-02-03T17:21:28.985Z,7.47
2023-02-03T17:23:58.343Z,7.44
2023-02-03T17:26:27.637Z,7.18
2023-02-03T17:28:55.474Z,6.73
2023-02-03T17:31:23.571Z,7.43
2023-02-03T17:33:52.892Z,7.47
2023-02-03T17:36:22.151Z,7.39
2023-02-03T17:55:26.108Z,7.54
2023-02-03T17:57:55.412Z,7.35
2023-02-03T18:00:23.654Z,6.91
2023-02-03T18:02:53.403Z,7.38
2023-02-03T18:05:21.283Z,7.26
2023-02-03T18:07:49.605Z,7.38
2023-02-03T18:10:18.002Z,7.31
2023-02-03T18:12:46.911Z,7.43
2023-02-03T18:15:18.073Z,7.29
2023-02-03T18:17:45.935Z,7.29
2023-02-03T18:20:14.754Z,7.07
2023-02-03T18:22:45.098Z,7.24
2023-02-03T18:25:16.807Z,7.25
2023-02-03T18:27:46.810Z,7.19
2023-02-03T18:30:18.244Z,7.23
2023-02-03T18:32:47.709Z,7.17
2023-02-03T18:35:17.304Z,7.16
2023-02-03T18:37:45.734Z,7.15
2023-02-03T18:40:14.435Z,7.10
2023-02-03T18:42:42.955Z,7.21
2023-02-03T18:45:12.828Z,7.20
2023-02-03T18:47:42.192Z,7.18
2023-02-03T18:50:10.898Z,7.19
2023-02-03T18:52:38.819Z,7.19
2023-02-03T18:55:07.287Z,7.15
2023-02-03T18:57:35.260Z,7.19
2023-02-03T19:00:03.500Z,6.87
2023-02-03T19:02:31.489Z,7.12
2023-02-03T19:05:01.131Z,7.16
2023-02-03T19:07:29.781Z,7.08
2023-02-03T19:09:57.576Z,7.10
2023-02-03T19:12:27.629Z,7.00
2023-02-03T19:14:55.539Z,7.06
2023-02-03T19:17:24.793Z,7.03
2023-02-03T19:19:53.000Z,6.97
2023-02-03T19:22:22.423Z,6.72
2023-02-03T19:24:50.391Z,6.87
2023-02-03T19:27:18.337Z,7.02
2023-02-03T19:29:46.196Z,6.95
2023-02-03T19:32:14.682Z,6.73
2023-02-03T19:34:42.692Z,6.61
2023-02-03T19:37:10.660Z,7.00
2023-02-03T19:39:39.949Z,6.99
2023-02-03T19:42:09.377Z,6.94
2023-02-03T19:44:37.529Z,6.92
2023-02-03T19:47:05.576Z,6.48
2023-02-03T19:49:33.604Z,6.95
2023-02-03T19:52:01.557Z,6.89
2023-02-03T19:54:29.639Z,7.04
2023-02-03T19:56:58.949Z,7.02
2023-02-03T19:59:26.895Z,6.93
2023-02-03T20:01:56.613Z,6.83
2023-02-03T20:04:26.033Z,6.93
2023-02-03T20:06:54.145Z,6.92
2023-02-03T20:09:22.054Z,6.91
2023-02-03T20:11:49.956Z,6.85
2023-02-03T20:14:19.195Z,6.81
2023-02-03T20:16:50.571Z,6.86
2023-02-03T20:19:18.691Z,6.30
2023-02-03T20:21:47.118Z,6.91
2023-02-03T20:24:14.914Z,6.21
2023-02-03T20:26:42.811Z,6.78
2023-02-03T20:29:10.904Z,6.86
2023-02-03T20:31:40.374Z,6.92
2023-02-03T20:34:08.614Z,6.86
2023-02-03T20:36:36.637Z,6.43
2023-02-03T20:39:04.766Z,6.75
2023-02-03T20:41:33.035Z,7.00
2023-02-03T20:44:02.040Z,6.91
2023-02-03T20:46:30.043Z,6.79
2023-02-03T20:48:59.337Z,6.48
2023-02-03T20:51:29.256Z,6.80
2023-02-03T20:53:57.604Z,6.80
2023-02-03T20:56:26.494Z,6.83
2023-02-03T20:58:55.004Z,6.78
2023-02-03T21:01:23.544Z,6.41
2023-02-03T21:04:08.636Z,6.44
2023-02-03T21:06:38.130Z,6.60
2023-02-03T21:09:14.148Z,6.54
2023-02-03T21:11:42.438Z,6.49
2023-02-03T21:14:19.988Z,6.54
2023-02-03T21:16:48.923Z,6.58
2023-02-03T21:19:29.719Z,6.58
2023-02-03T21:21:59.474Z,6.27
2023-02-03T21:24:30.101Z,6.41
2023-02-03T21:26:58.929Z,6.33
2023-02-03T21:29:30.049Z,6.32
2023-02-03T21:31:58.270Z,6.14
2023-02-03T21:34:29.497Z,5.96
2023-02-03T21:36:59.670Z,6.26
2023-02-03T21:39:29.437Z,6.22
2023-02-03T21:41:58.032Z,6.18
2023-02-03T21:44:32.635Z,6.30
2023-02-03T21:47:04.942Z,5.99
2023-02-03T21:49:34.732Z,6.23
2023-02-03T21:52:04.660Z,6.29
2023-02-03T21:54:33.881Z,6.29
2023-02-03T21:57:02.253Z,5.78
2023-02-03T21:59:42.217Z,6.26
2023-02-03T22:02:49.715Z,5.72
2023-02-03T22:05:17.742Z,6.20
2023-02-03T22:07:46.948Z,6.25
2023-02-03T22:10:15.019Z,6.10
2023-02-03T22:12:43.033Z,6.28
2023-02-03T22:15:12.377Z,6.27
2023-02-03T22:17:40.620Z,6.29
2023-02-03T22:20:09.002Z,6.34
2023-02-03T22:22:37.046Z,6.21
2023-02-03T22:25:06.985Z,6.23
2023-02-03T22:27:34.902Z,6.22
2023-02-03T22:30:02.910Z,6.23
2023-02-03T22:32:31.092Z,6.29
2023-02-03T22:34:59.030Z,6.09
2023-02-03T22:37:26.899Z,6.22
2023-02-03T22:39:54.854Z,6.08
2023-02-03T22:42:24.445Z,6.04
2023-02-03T22:44:52.471Z,5.46
2023-02-03T22:47:20.377Z,5.88
2023-02-03T22:49:48.306Z,6.07
2023-02-03T22:52:16.206Z,5.96
2023-02-03T22:54:44.382Z,5.75
2023-02-03T22:57:12.274Z,5.60
2023-02-03T22:59:41.481Z,5.86
2023-02-03T23:02:09.419Z,5.38
2023-02-03T23:04:37.427Z,5.60
2023-02-03T23:07:05.270Z,5.14
2023-02-03T23:09:33.304Z,5.73
2023-02-03T23:12:01.419Z,5.56
2023-02-03T23:14:29.292Z,5.67
2023-02-03T23:16:58.676Z,5.79
2023-02-03T23:19:26.704Z,5.73
2023-02-03T23:21:54.662Z,5.30
2023-02-03T23:24:22.562Z,5.70
2023-02-03T23:26:50.533Z,5.81
2023-02-03T23:29:18.479Z,5.67
2023-02-03T23:31:46.444Z,5.85
2023-02-03T23:34:33.036Z,5.68
2023-02-03T23:37:01.353Z,5.83
2023-02-03T23:39:30.134Z,5.72
2023-02-03T23:41:58.617Z,5.47
2023-02-03T23:44:26.587Z,5.22
2023-02-03T23:46:54.422Z,5.76
2023-02-03T23:49:23.842Z,5.32
2023-02-03T23:51:51.768Z,5.25
2023-02-03T23:54:19.782Z,5.48
2023-02-03T23:56:47.676Z,5.74
2023-02-03T23:59:15.563Z,5.80
